Time;durP1;ratioP1;P1;durP2;ratioP2;P2;SDS_P1;SDS_P2;PMS_P1;PMS_P2;Temp;Humidity;BMP_temperature;BMP_pressure;BME280_temperature;BME280_humidity;BME280_pressure;Samples;Min_cycle;Max_cycle;Signal;HPM_P1;HPM_P2
2021/06/15 00:01:30;;;;;;;5.80;4.30;;;18.10;98.70;;;17.81;75.18;101733.56;4169908;28;20555;-65
2021/06/15 00:03:31;;;;;;;8.55;5.10;;;18.10;98.70;;;17.74;74.71;101721.13;4168001;28;20037;-65
2021/06/15 00:05:32;;;;;;;8.98;4.60;;;18.10;98.50;;;17.69;75.54;101730.47;4169544;28;20029;-65
2021/06/15 00:07:33;;;;;;;10.10;4.93;;;18.10;98.70;;;17.65;75.43;101713.16;4168995;28;20374;-65
2021/06/15 00:09:34;;;;;;;5.38;4.28;;;18.00;98.80;;;17.65;75.51;101733.69;4167991;28;20059;-65
2021/06/15 00:11:35;;;;;;;10.52;4.53;;;18.00;98.80;;;17.62;75.50;101726.03;4169481;28;20021;-65
2021/06/15 00:13:36;;;;;;;8.77;4.85;;;18.00;98.80;;;17.52;75.69;101715.56;4168367;28;20097;-65
2021/06/15 00:15:37;;;;;;;6.00;4.00;;;17.90;98.80;;;17.56;75.71;101708.88;4169451;28;20104;-65
2021/06/15 00:17:39;;;;;;;9.48;4.38;;;17.80;99.30;;;17.53;75.80;101721.75;4151825;28;20025;-65
2021/06/15 00:19:40;;;;;;;6.57;4.78;;;17.90;99.10;;;17.39;76.35;101723.31;4168002;28;20033;-65
2021/06/15 00:21:41;;;;;;;7.15;4.18;;;17.90;99.00;;;17.52;76.00;101720.91;4151635;28;20029;-65
2021/06/15 00:23:42;;;;;;;7.20;4.63;;;17.90;99.10;;;17.39;76.72;101720.66;4169318;28;20036;-65
2021/06/15 00:25:42;;;;;;;6.25;3.83;;;17.80;99.30;;;17.42;76.85;101720.31;4168174;28;20037;-65
2021/06/15 00:27:45;;;;;;;7.03;4.20;;;17.80;99.40;;;17.38;77.17;101715.50;4169250;28;20021;-65
2021/06/15 00:29:46;;;;;;;8.93;4.93;;;17.80;99.60;;;17.40;76.86;101718.81;4167956;28;20084;-65
2021/06/15 00:31:47;;;;;;;5.70;3.88;;;17.80;99.50;;;17.36;77.40;101714.84;4169321;28;20026;-65
2021/06/15 00:33:48;;;;;;;8.75;4.53;;;17.70;99.80;;;17.30;77.57;101716.38;4168022;28;20525;-65
2021/06/15 00:35:50;;;;;;;8.13;4.63;;;17.70;99.80;;;17.23;77.96;101718.09;4169211;28;20033;-65
2021/06/15 00:37:52;;;;;;;13.00;4.90;;;17.70;99.90;;;16.97;79.18;101713.06;4200776;28;20434;-65
2021/06/15 00:39:53;;;;;;;6.72;4.45;;;17.70;99.90;;;16.98;79.49;101697.91;4200729;28;20047;-65
2021/06/15 00:41:54;;;;;;;6.15;4.88;;;17.60;99.90;;;17.12;79.00;101716.66;4169089;28;20037;-65
2021/06/15 00:43:55;;;;;;;5.82;4.22;;;17.60;99.90;;;17.02;79.70;101702.69;4168668;28;20485;-65
2021/06/15 00:45:55;;;;;;;7.45;4.97;;;17.50;99.90;;;17.03;79.60;101699.03;4167644;28;20029;-65
2021/06/15 00:47:56;;;;;;;11.75;5.30;;;17.50;99.90;;;17.10;79.16;101715.16;4167568;28;20088;-65
2021/06/15 00:49:58;;;;;;;11.30;5.63;;;17.50;99.90;;;17.04;80.22;101716.69;4169004;28;20034;-65
2021/06/15 00:51:59;;;;;;;8.02;4.18;;;17.40;99.90;;;16.97;80.72;101715.72;4167646;28;20021;-65
2021/06/15 00:54:01;;;;;;;8.63;4.78;;;17.50;99.90;;;17.01;80.67;101719.72;4167588;28;20118;-65
2021/06/15 00:56:04;;;;;;;8.27;4.80;;;17.50;99.90;;;17.11;80.58;101711.50;4167685;28;20068;-65
2021/06/15 00:58:05;;;;;;;7.38;5.53;;;17.40;99.90;;;16.91;81.32;101704.91;4169109;28;20097;-65
2021/06/15 01:00:08;;;;;;;9.73;4.90;;;17.40;99.90;;;17.00;81.31;101706.53;4167527;28;20112;-65
2021/06/15 01:02:10;;;;;;;6.85;4.65;;;17.40;99.90;;;16.89;82.14;101699.78;4168617;28;20040;-65
2021/06/15 01:04:13;;;;;;;9.20;5.63;;;17.40;99.90;;;16.88;82.51;101699.94;4167284;28;20033;-67
2021/06/15 01:06:32;;;;;;;5.57;4.63;;;17.40;99.90;;;16.96;82.48;101698.09;4167638;28;20029;-65
2021/06/15 01:08:53;;;;;;;7.57;5.10;;;17.40;99.90;;;16.99;82.26;101696.91;4168620;28;20032;-65
2021/06/15 01:11:20;;;;;;;9.23;4.75;;;17.30;99.90;;;16.98;82.75;101692.56;4167669;28;20029;-67
2021/06/15 01:13:24;;;;;;;6.70;4.35;;;17.30;99.90;;;16.95;82.84;101699.09;4168564;28;20025;-65
2021/06/15 01:15:50;;;;;;;10.32;4.97;;;17.30;99.90;;;17.00;82.97;101695.88;4168508;28;20047;-66
2021/06/15 01:18:04;;;;;;;7.85;5.05;;;17.20;99.90;;;17.01;82.89;101694.88;4168155;28;20064;-67
2021/06/15 01:20:22;;;;;;;5.78;4.57;;;17.20;99.90;;;17.04;83.07;101697.19;4168192;28;20426;-65
2021/06/15 01:22:48;;;;;;;7.90;4.97;;;17.20;99.90;;;17.06;83.14;101700.50;4168461;28;20065;-65
2021/06/15 01:25:03;;;;;;;8.82;4.95;;;17.30;99.90;;;17.03;83.03;101695.53;4167158;28;20536;-65
2021/06/15 01:27:48;;;;;;;7.78;4.78;;;17.20;99.90;;;16.90;83.72;101689.94;4167535;28;20527;-66
2021/06/15 01:29:52;;;;;;;6.18;4.35;;;17.20;99.90;;;16.99;83.58;101697.72;4157788;28;20382;-65
2021/06/15 01:31:59;;;;;;;8.57;5.28;;;17.20;99.90;;;16.90;84.50;101697.94;4167268;28;20112;-65
2021/06/15 01:34:07;;;;;;;9.13;4.97;;;17.20;99.90;;;16.96;84.54;101694.59;4166937;28;20498;-69
2021/06/15 01:36:13;;;;;;;7.10;5.30;;;17.20;99.90;;;16.89;84.36;101683.78;4168222;28;20055;-68
2021/06/15 01:38:18;;;;;;;9.70;5.50;;;17.10;99.90;;;16.75;85.44;101697.00;4167213;28;20489;-66
2021/06/15 01:40:31;;;;;;;6.97;5.07;;;17.00;99.90;;;16.83;85.12;101697.81;4166789;28;20198;-67
2021/06/15 01:42:40;;;;;;;6.40;5.07;;;17.00;99.90;;;17.00;84.27;101690.53;4166845;28;20401;-67
2021/06/15 01:44:44;;;;;;;7.53;5.18;;;17.00;99.90;;;16.89;85.53;101688.28;4167019;28;20038;-68
2021/06/15 01:47:10;;;;;;;6.45;4.55;;;17.00;99.90;;;16.94;84.90;101686.75;4167049;28;20104;-67
2021/06/15 01:49:17;;;;;;;7.20;4.68;;;17.00;99.90;;;16.89;85.07;101680.28;4166771;28;20022;-67
2021/06/15 01:51:24;;;;;;;8.43;4.70;;;17.00;99.90;;;16.86;85.54;101689.47;4166998;28;20036;-68
2021/06/15 01:53:26;;;;;;;6.38;4.72;;;17.00;99.90;;;16.79;85.13;101684.97;4168124;28;20501;-67
2021/06/15 01:55:28;;;;;;;8.98;4.78;;;16.90;99.90;;;16.80;85.45;101689.31;4166747;28;20060;-67
2021/06/15 01:57:31;;;;;;;8.30;5.63;;;16.80;99.90;;;16.81;85.65;101693.66;4167055;28;20452;-67
2021/06/15 01:59:34;;;;;;;9.95;4.35;;;16.90;99.90;;;16.86;85.73;101691.28;4167028;28;20466;-67
2021/06/15 02:01:45;;;;;;;7.37;4.50;;;16.90;99.90;;;16.93;85.11;101682.44;4166938;28;20418;-67
2021/06/15 02:03:47;;;;;;;6.85;4.75;;;16.90;99.90;;;16.82;85.97;101677.47;4166692;28;20639;-67
2021/06/15 02:05:56;;;;;;;7.15;4.32;;;16.80;99.90;;;16.78;85.95;101680.69;4166931;28;20025;-67
2021/06/15 02:08:01;;;;;;;8.35;4.70;;;16.80;99.90;;;16.95;85.17;101682.25;4150500;28;20026;-67
2021/06/15 02:10:15;;;;;;;7.32;4.60;;;16.90;99.90;;;16.89;85.50;101669.63;4166794;28;20112;-67
2021/06/15 02:12:20;;;;;;;6.38;5.22;;;16.90;99.90;;;16.88;86.00;101676.78;4166961;28;20025;-67
2021/06/15 02:14:25;;;;;;;9.07;5.22;;;17.00;99.90;;;16.91;85.50;101675.59;4166761;28;20053;-68
2021/06/15 02:16:28;;;;;;;8.52;5.13;;;17.00;99.90;;;16.75;86.71;101673.88;4166855;28;20109;-67
2021/06/15 02:18:31;;;;;;;9.05;5.40;;;16.90;99.90;;;16.82;86.47;101671.31;4150027;28;20487;-67
2021/06/15 02:20:38;;;;;;;10.82;6.13;;;16.90;99.90;;;16.83;87.01;101680.97;4166915;28;20033;-67
2021/06/15 02:22:49;;;;;;;8.27;4.82;;;16.90;99.90;;;16.76;87.26;101664.00;4166881;28;20035;-67
2021/06/15 02:25:00;;;;;;;6.95;6.15;;;16.90;99.90;;;16.72;87.32;101670.72;4166601;28;20064;-67
2021/06/15 02:27:02;;;;;;;6.60;5.07;;;16.90;99.90;;;16.51;89.25;101674.75;4166857;28;20025;-67
2021/06/15 02:29:03;;;;;;;11.10;6.70;;;16.90;99.90;;;16.52;88.63;101659.59;4166767;28;20493;-67
2021/06/15 02:31:05;;;;;;;9.35;6.20;;;16.80;99.90;;;16.50;89.94;101677.59;4168369;28;20104;-67
2021/06/15 02:33:13;;;;;;;11.90;6.93;;;16.80;99.90;;;16.41;90.94;101681.28;4169508;28;20451;-67
2021/06/15 02:35:15;;;;;;;10.63;6.70;;;16.80;99.90;;;16.44;90.41;101678.25;4171068;28;20021;-67
2021/06/15 02:37:29;;;;;;;11.90;6.53;;;16.80;99.90;;;16.40;91.41;101676.94;4169788;28;20052;-67
2021/06/15 02:39:35;;;;;;;9.38;6.53;;;16.70;99.90;;;16.29;91.90;101669.31;4169657;28;20045;-67
2021/06/15 02:41:40;;;;;;;11.43;7.25;;;16.70;99.90;;;16.26;92.24;101674.97;4169872;28;20029;-67
2021/06/15 02:43:43;;;;;;;12.23;7.38;;;16.70;99.90;;;16.34;92.02;101672.28;4169647;28;20038;-67
2021/06/15 02:45:45;;;;;;;12.90;8.60;;;16.70;99.90;;;16.24;93.11;101671.69;4169686;28;20101;-67
2021/06/15 02:47:50;;;;;;;11.07;8.40;;;16.70;99.90;;;16.08;94.33;101672.53;4169671;28;20775;-67
2021/06/15 02:49:58;;;;;;;13.40;7.63;;;16.70;99.90;;;16.15;93.87;101667.38;4169764;28;20026;-67
2021/06/15 02:52:18;;;;;;;10.77;9.07;;;16.60;99.90;;;16.08;94.03;101658.38;4169730;28;20048;-67
2021/06/15 02:54:40;;;;;;;10.30;8.60;;;16.60;99.90;;;16.06;94.63;101661.22;4169692;28;20111;-67
2021/06/15 02:56:48;;;;;;;10.43;7.82;;;16.60;99.90;;;16.10;94.57;101664.41;4169622;28;20076;-67
2021/06/15 02:58:49;;;;;;;13.82;9.98;;;16.50;99.90;;;15.95;95.86;101661.56;4170581;28;20084;-67
2021/06/15 03:00:51;;;;;;;12.65;9.35;;;16.50;99.90;;;15.98;95.37;101662.06;4170778;28;20408;-67
2021/06/15 03:02:52;;;;;;;11.00;8.55;;;16.40;99.90;;;16.01;95.49;101666.22;4169251;28;20030;-67
2021/06/15 03:04:53;;;;;;;12.70;9.27;;;16.40;99.90;;;15.96;95.71;101652.59;4170519;28;20029;-67
2021/06/15 03:06:54;;;;;;;12.23;9.32;;;16.40;99.90;;;16.00;95.41;101659.25;4169203;28;20452;-67
2021/06/15 03:08:55;;;;;;;12.25;9.65;;;16.40;99.90;;;16.02;95.99;101665.22;4169495;28;20025;-67
2021/06/15 03:10:56;;;;;;;16.17;10.43;;;16.40;99.90;;;15.81;97.51;101654.28;4170755;28;20473;-67
2021/06/15 03:13:13;;;;;;;15.55;10.43;;;16.40;99.90;;;15.76;97.98;101654.78;4170709;28;20192;-67
2021/06/15 03:15:19;;;;;;;15.00;11.50;;;16.40;99.90;;;15.80;98.48;101652.63;4169501;28;20033;-67
2021/06/15 03:17:26;;;;;;;14.68;11.00;;;16.40;99.90;;;15.85;98.34;101656.44;4169491;28;20060;-67
2021/06/15 03:19:44;;;;;;;15.00;11.82;;;16.40;99.90;;;15.78;98.57;101651.94;4169150;28;20531;-67
2021/06/15 03:21:53;;;;;;;16.17;10.68;;;16.50;99.90;;;15.82;99.08;101650.63;4169381;28;20427;-67
2021/06/15 03:24:02;;;;;;;15.93;12.23;;;16.40;99.90;;;15.84;98.97;101644.13;4169224;28;20068;-67
2021/06/15 03:26:09;;;;;;;19.50;11.18;;;16.40;99.90;;;15.90;99.02;101654.09;4169268;28;20018;-67
2021/06/15 03:28:20;;;;;;;15.55;12.00;;;16.50;99.90;;;15.92;98.76;101649.44;4170119;28;20112;-67
2021/06/15 03:30:22;;;;;;;13.27;11.57;;;16.50;99.90;;;16.03;98.68;101656.25;4169179;28;20101;-67
2021/06/15 03:32:26;;;;;;;14.73;11.48;;;16.50;99.90;;;16.05;98.43;101647.09;4169286;28;20030;-67
2021/06/15 03:34:30;;;;;;;;;;;16.50;99.90;;;16.06;98.07;101637.28;4170171;28;20025;-67
2021/06/15 03:36:33;;;;;;;14.27;10.80;;;16.50;99.90;;;16.16;97.95;101643.22;4202073;28;19908;-67
2021/06/15 03:38:36;;;;;;;13.80;9.43;;;16.60;99.90;;;16.27;98.16;101653.53;4169138;28;20026;-67
2021/06/15 03:40:51;;;;;;;14.80;11.85;;;16.60;99.90;;;16.32;96.95;101653.00;4202206;28;20024;-67
2021/06/15 03:42:52;;;;;;;14.60;10.77;;;16.60;99.90;;;16.43;96.66;101655.28;4168758;28;20505;-67
2021/06/15 03:45:06;;;;;;;16.15;11.50;;;16.70;99.90;;;16.38;96.98;101650.50;4170282;28;20035;-67
2021/06/15 03:47:08;;;;;;;14.95;10.57;;;16.70;99.90;;;16.42;96.91;101658.97;4170110;28;20088;-67
2021/06/15 03:49:11;;;;;;;15.98;11.57;;;16.80;99.90;;;16.45;96.25;101654.16;4168546;28;20512;-67
2021/06/15 03:51:29;;;;;;;16.35;12.07;;;16.80;99.90;;;16.44;96.60;101656.97;4169093;28;20029;-67
2021/06/15 03:53:33;;;;;;;17.23;12.43;;;16.80;99.90;;;16.42;96.54;101667.81;4168979;28;20112;-67
2021/06/15 03:55:38;;;;;;;17.38;13.27;;;16.90;99.90;;;16.36;97.46;101665.00;4168876;28;20080;-67
2021/06/15 03:57:42;;;;;;;14.82;12.65;;;16.90;99.90;;;16.31;97.85;101661.97;4170079;28;20021;-67
2021/06/15 03:59:43;;;;;;;;;;;16.90;99.90;;;16.40;97.48;101666.28;4169247;28;20033;-67
2021/06/15 04:01:46;;;;;;;15.88;12.65;;;16.80;99.90;;;16.42;97.11;101658.97;4168515;28;19971;-67
2021/06/15 04:03:48;;;;;;;15.52;13.10;;;16.80;99.90;;;16.50;97.23;101657.09;4168195;28;20034;-67
2021/06/15 04:05:52;;;;;;;19.48;13.65;;;16.90;99.90;;;16.47;96.66;101657.44;4168711;28;20416;-67
2021/06/15 04:07:59;;;;;;;18.27;14.00;;;16.80;99.90;;;16.42;97.53;101656.31;4169977;28;20384;-67
2021/06/15 04:10:02;;;;;;;16.63;13.18;;;16.90;99.90;;;16.35;97.68;101658.00;4168519;28;20143;-67
2021/06/15 04:12:05;;;;;;;15.18;11.38;;;16.90;99.90;;;16.41;97.84;101654.66;4168576;28;20409;-67
2021/06/15 04:14:11;;;;;;;14.40;10.98;;;16.80;99.90;;;16.55;98.24;101660.09;4169452;28;20041;-67
2021/06/15 04:16:14;;;;;;;16.08;12.65;;;16.80;99.90;;;16.37;98.12;101664.78;4169664;28;20405;-67
2021/06/15 04:18:18;;;;;;;16.23;12.77;;;16.90;99.90;;;16.45;97.88;101662.13;4169292;28;20461;-67
2021/06/15 04:20:31;;;;;;;18.55;14.07;;;16.90;99.90;;;16.27;99.05;101655.34;4168488;28;20598;-67
2021/06/15 04:22:36;;;;;;;16.77;13.25;;;16.90;99.90;;;16.48;98.05;101660.94;4169648;28;20118;-67
2021/06/15 04:24:45;;;;;;;17.25;13.93;;;16.90;99.90;;;16.52;97.68;101670.25;4168226;28;20068;-67
2021/06/15 04:26:46;;;;;;;17.02;13.05;;;16.90;99.90;;;16.47;98.45;101657.44;4168423;28;20036;-67
2021/06/15 04:28:47;;;;;;;18.80;13.40;;;16.90;99.90;;;16.57;97.83;101666.13;4168307;28;20029;-67
2021/06/15 04:30:50;;;;;;;14.65;12.25;;;16.90;99.90;;;16.45;99.07;101669.28;4168272;28;20063;-67
2021/06/15 04:32:51;;;;;;;18.17;12.93;;;16.90;99.90;;;16.48;98.59;101671.59;4167948;28;20029;-67
2021/06/15 04:34:59;;;;;;;19.00;14.63;;;17.00;99.90;;;16.54;97.97;101674.44;4169218;28;20043;-67
2021/06/15 04:37:04;;;;;;;14.45;12.30;;;17.00;99.90;;;16.54;97.89;101673.63;4168178;28;20034;-67
2021/06/15 04:39:45;;;;;;;15.73;13.52;;;17.00;99.90;;;16.54;98.24;101682.44;4165879;28;20088;-67
2021/06/15 04:42:00;;;;;;;19.92;14.57;;;17.00;99.90;;;16.42;98.48;101675.78;4168282;28;20061;-67
2021/06/15 04:44:11;;;;;;;16.70;13.82;;;17.00;99.90;;;16.66;98.26;101690.06;4167864;28;20021;-67
2021/06/15 04:46:40;;;;;;;17.42;14.32;;;17.10;99.90;;;16.70;97.21;101699.34;4168066;28;20025;-68
2021/06/15 04:48:46;;;;;;;18.15;14.25;;;17.10;99.90;;;16.57;97.98;101694.59;4166333;28;20029;-67
2021/06/15 04:50:48;;;;;;;20.10;13.63;;;17.10;99.90;;;16.72;97.61;101689.38;4167882;28;20028;-67
2021/06/15 04:52:50;;;;;;;19.25;13.88;;;17.20;99.90;;;16.75;97.32;101702.34;4167934;28;20052;-67
2021/06/15 04:54:52;;;;;;;19.65;14.15;;;17.20;99.90;;;16.71;97.06;101706.34;4168356;28;20057;-67
2021/06/15 04:56:55;;;;;;;21.63;15.57;;;17.20;99.90;;;16.48;98.64;101703.56;4167790;28;20022;-67
2021/06/15 04:59:01;;;;;;;17.37;13.70;;;17.20;99.90;;;16.54;98.85;101702.91;4169087;28;20035;-67
2021/06/15 05:01:03;;;;;;;18.77;13.82;;;17.20;99.90;;;16.58;98.46;101702.38;4167939;28;20053;-67
2021/06/15 05:03:06;;;;;;;16.70;13.93;;;17.20;99.90;;;16.55;98.90;101701.88;4167392;28;20036;-67
2021/06/15 05:05:10;;;;;;;16.30;13.93;;;17.20;99.90;;;16.59;98.50;101700.56;4168731;28;20036;-67
2021/06/15 05:07:16;;;;;;;15.40;12.63;;;17.20;99.90;;;16.78;97.77;101710.81;4167437;28;20018;-67
2021/06/15 05:09:21;;;;;;;16.05;13.07;;;17.30;99.90;;;16.91;97.54;101699.59;4168755;28;20144;-67
2021/06/15 05:11:22;;;;;;;23.55;13.85;;;17.30;99.90;;;16.95;96.95;101698.25;4167738;28;20030;-67
2021/06/15 05:13:24;;;;;;;16.95;12.63;;;17.30;99.90;;;16.90;97.08;101693.44;4167526;28;20492;-67
2021/06/15 05:15:28;;;;;;;15.90;13.40;;;17.40;99.90;;;17.00;96.00;101701.22;4167371;28;20068;-67
2021/06/15 05:17:30;;;;;;;19.35;14.55;;;17.50;99.90;;;16.86;97.19;101699.28;4168746;28;20034;-67
2021/06/15 05:19:31;;;;;;;17.00;13.32;;;17.50;99.90;;;17.10;96.50;101712.50;4168365;28;20091;-67
2021/06/15 05:21:45;;;;;;;17.00;12.57;;;17.60;99.90;;;17.06;97.09;101706.69;4168638;28;20021;-67
2021/06/15 05:24:09;;;;;;;14.30;11.57;;;17.60;99.90;;;17.15;96.14;101710.97;4168691;28;20059;-67
2021/06/15 05:26:13;;;;;;;15.35;13.13;;;17.70;99.90;;;17.19;95.44;101716.78;4168666;28;20021;-67
2021/06/15 05:28:14;;;;;;;16.85;12.07;;;17.70;99.90;;;17.22;95.63;101716.44;4168637;28;20030;-67
2021/06/15 05:30:15;;;;;;;18.15;13.85;;;17.80;99.90;;;17.05;96.60;101722.88;4168436;28;20036;-67
2021/06/15 05:32:16;;;;;;;19.80;14.13;;;17.80;99.90;;;17.14;96.42;101713.81;4168583;28;20022;-67
2021/06/15 05:34:17;;;;;;;17.13;13.90;;;17.80;99.90;;;17.25;95.92;101710.75;4168621;28;20033;-66
2021/06/15 05:36:18;;;;;;;15.27;13.40;;;17.90;99.90;;;17.34;95.91;101708.84;4165979;28;20030;-66
2021/06/15 05:38:19;;;;;;;15.93;12.82;;;18.00;99.90;;;17.42;95.56;101709.63;4168281;28;20033;-66
2021/06/15 05:40:20;;;;;;;15.90;13.02;;;18.00;99.90;;;17.51;93.83;101718.41;4172430;28;20132;-66
2021/06/15 05:42:21;;;;;;;17.73;12.93;;;18.10;99.90;;;17.43;95.04;101716.63;4170887;28;20029;-66
2021/06/15 05:44:23;;;;;;;15.57;11.85;;;18.10;99.90;;;17.54;94.42;101716.25;4168089;28;20041;-66
2021/06/15 05:46:24;;;;;;;16.38;12.80;;;18.20;99.90;;;17.50;94.20;101709.56;4168302;28;20063;-66
2021/06/15 05:48:25;;;;;;;16.25;12.32;;;18.20;99.90;;;17.64;93.73;101706.19;4167774;28;20100;-67
2021/06/15 05:50:26;;;;;;;16.67;13.55;;;18.20;99.90;;;17.55;93.71;101701.06;4168386;28;20108;-66
2021/06/15 05:52:26;;;;;;;15.13;12.77;;;18.30;99.90;;;17.67;92.82;101708.50;4167859;28;20083;-66
2021/06/15 05:54:28;;;;;;;16.25;13.02;;;18.40;99.90;;;17.53;93.10;101708.41;4168338;28;20033;-66
2021/06/15 05:56:30;;;;;;;15.10;12.27;;;18.40;99.90;;;17.47;93.50;101707.25;4168297;28;20022;-66
2021/06/15 05:58:31;;;;;;;15.43;12.43;;;18.30;99.90;;;17.46;93.55;101708.28;4168067;28;20029;-66
2021/06/15 06:00:32;;;;;;;13.65;11.25;;;18.30;99.90;;;17.52;93.88;101712.91;4168088;28;20030;-66
2021/06/15 06:02:33;;;;;;;15.23;12.68;;;18.30;99.90;;;17.57;92.81;101710.56;4167967;28;20036;-66
2021/06/15 06:08:04;;;;;;;14.73;11.60;;;18.30;99.90;;;17.65;92.75;101707.81;4167859;28;20462;-66
2021/06/15 06:09:17;;;;;;;16.08;11.65;;;18.40;99.90;;;17.61;93.73;101711.03;4171469;28;20041;-67
2021/06/15 06:11:18;;;;;;;14.13;11.80;;;18.40;99.90;;;17.62;93.63;101713.50;4168619;28;20033;-67
2021/06/15 06:13:19;;;;;;;18.48;12.60;;;18.50;99.90;;;17.26;94.41;101707.09;4170890;28;20091;-66
2021/06/15 06:15:20;;;;;;;17.90;14.13;;;18.40;99.90;;;17.34;94.47;101719.53;4170175;28;20032;-66
2021/06/15 06:17:21;;;;;;;17.33;12.60;;;18.40;99.90;;;17.42;95.09;101717.63;4167898;28;20107;-67
2021/06/15 06:19:22;;;;;;;16.38;12.85;;;18.40;99.90;;;17.30;95.20;101724.38;4167340;28;20052;-66
2021/06/15 06:21:23;;;;;;;14.88;11.77;;;18.50;99.90;;;17.53;95.46;101717.22;4170037;28;20029;-66
2021/06/15 06:23:24;;;;;;;15.45;11.68;;;18.50;99.90;;;17.69;93.93;101713.63;4168531;28;20057;-66
2021/06/15 06:25:29;;;;;;;12.73;11.15;;;18.70;99.90;;;17.63;94.33;101722.34;4169847;28;20366;-66
2021/06/15 06:27:29;;;;;;;12.35;10.68;;;18.70;99.90;;;17.67;93.63;101710.31;4171016;28;20033;-66
2021/06/15 06:29:30;;;;;;;17.42;12.82;;;18.70;99.90;;;17.38;94.74;101721.66;4170949;28;20085;-66
2021/06/15 06:31:31;;;;;;;16.08;12.27;;;18.70;99.90;;;17.56;94.26;101718.75;4171105;28;20504;-66
2021/06/15 06:33:34;;;;;;;15.73;12.18;;;18.60;99.90;;;17.54;94.32;101720.72;4170785;28;20064;-66
2021/06/15 06:35:35;;;;;;;16.45;11.13;;;18.70;99.90;;;17.81;92.98;101712.19;4170818;28;20048;-66
2021/06/15 06:37:35;;;;;;;16.02;11.30;;;18.70;99.90;;;18.06;91.51;101715.50;4170479;28;20033;-66
2021/06/15 06:39:38;;;;;;;14.50;12.38;;;18.90;99.90;;;18.06;91.97;101715.50;4170621;28;20497;-66
2021/06/15 06:41:39;;;;;;;12.65;10.60;;;19.00;99.90;;;18.07;92.23;101717.16;4171021;28;20489;-66
2021/06/15 06:43:40;;;;;;;14.20;11.65;;;19.20;99.90;;;18.23;92.19;101717.00;4169358;28;20033;-66
2021/06/15 06:45:41;;;;;;;13.75;11.38;;;19.30;99.90;;;18.42;90.54;101719.16;4170526;28;20496;-66
2021/06/15 06:47:42;;;;;;;14.98;11.13;;;19.40;99.90;;;18.16;90.91;101710.72;4170411;28;20037;-66
2021/06/15 06:49:43;;;;;;;14.40;10.73;;;19.50;99.90;;;18.32;91.32;101720.41;4168935;28;20021;-66
2021/06/15 06:51:44;;;;;;;15.02;10.57;;;19.60;99.90;;;18.49;91.08;101717.41;4170646;28;20025;-66
2021/06/15 06:53:45;;;;;;;14.52;10.13;;;19.70;99.90;;;18.92;89.35;101715.75;4170548;28;20021;-66
2021/06/15 06:55:46;;;;;;;17.50;10.60;;;19.80;99.90;;;18.61;89.14;101709.75;4168064;28;20037;-66
2021/06/15 06:57:48;;;;;;;14.45;12.40;;;19.90;99.90;;;18.60;89.63;101716.13;4169346;28;20382;-66
2021/06/15 06:59:49;;;;;;;13.25;11.20;;;19.90;99.90;;;18.69;88.60;101723.06;4170666;28;20034;-66
2021/06/15 07:01:50;;;;;;;15.13;11.27;;;19.90;99.90;;;18.75;88.18;101712.44;4168903;28;20021;-67
2021/06/15 07:03:51;;;;;;;14.30;10.00;;;19.80;99.90;;;18.75;88.99;101709.78;4170325;28;20099;-66
2021/06/15 07:05:52;;;;;;;15.35;11.30;;;19.70;99.90;;;18.57;89.00;101713.84;4170691;28;20495;-66
2021/06/15 07:07:53;;;;;;;10.90;9.27;;;19.60;99.90;;;18.64;89.38;101712.91;4170009;28;20029;-66
2021/06/15 07:09:54;;;;;;;11.38;9.10;;;19.50;99.90;;;18.75;89.07;101711.63;4169829;28;20029;-66
2021/06/15 07:11:55;;;;;;;14.00;11.65;;;19.50;99.90;;;18.52;88.82;101703.69;4170178;28;20036;-66
2021/06/15 07:13:56;;;;;;;12.52;9.52;;;19.50;99.90;;;18.57;89.14;101705.81;4169657;28;20040;-66
2021/06/15 07:15:57;;;;;;;13.98;10.68;;;19.40;99.90;;;18.48;89.87;101715.75;4169132;28;20034;-66
2021/06/15 07:17:58;;;;;;;16.35;12.65;;;19.40;99.90;;;18.59;89.30;101717.97;4169378;28;20118;-66
2021/06/15 07:19:59;;;;;;;11.80;10.60;;;19.40;99.90;;;18.43;90.02;101712.78;4169864;28;20033;-66
2021/06/15 07:22:00;;;;;;;12.77;10.32;;;19.30;99.90;;;18.54;89.91;101709.69;4167948;28;20057;-66
2021/06/15 07:24:01;;;;;;;11.68;9.98;;;19.30;99.90;;;18.72;90.59;101718.16;4170204;28;20037;-66
2021/06/15 07:26:02;;;;;;;13.75;10.15;;;19.30;99.90;;;18.71;89.65;101716.50;4169055;28;20404;-66
2021/06/15 07:28:04;;;;;;;11.88;10.30;;;19.40;99.90;;;18.70;89.41;101714.00;4170108;28;20085;-66
2021/06/15 07:30:06;;;;;;;12.52;9.00;;;19.50;99.90;;;18.86;88.81;101712.97;4168825;28;20021;-66
2021/06/15 07:32:07;;;;;;;11.38;9.85;;;19.50;99.90;;;18.59;90.28;101715.31;4151077;28;20051;-66
2021/06/15 07:34:08;;;;;;;14.30;10.50;;;19.50;99.90;;;18.57;89.29;101719.19;4169635;28;20030;-66
2021/06/15 07:36:09;;;;;;;11.90;9.05;;;19.50;99.90;;;18.71;90.11;101715.66;4169885;28;20071;-66
2021/06/15 07:38:10;;;;;;;12.07;8.82;;;19.50;99.90;;;18.94;89.35;101720.88;4169454;28;20025;-66
2021/06/15 07:40:12;;;;;;;13.95;9.57;;;19.60;99.90;;;19.01;88.36;101716.47;4169149;28;20057;-67
2021/06/15 07:42:13;;;;;;;12.80;9.98;;;19.70;99.90;;;18.83;88.90;101718.69;4167073;28;20021;-67
2021/06/15 07:44:14;;;;;;;14.32;10.82;;;19.70;99.90;;;18.97;88.32;101723.19;4169559;28;20112;-68
2021/06/15 07:46:15;;;;;;;10.52;8.15;;;19.80;99.90;;;19.24;87.58;101722.47;4169702;28;20026;-67
2021/06/15 07:48:17;;;;;;;12.77;8.73;;;19.80;99.90;;;19.33;87.50;101713.31;4169545;28;20033;-67
2021/06/15 07:50:18;;;;;;;13.60;9.98;;;20.00;99.90;;;19.31;87.16;101710.03;4168537;28;20025;-66
2021/06/15 07:52:27;;;;;;;12.70;9.40;;;20.10;99.90;;;19.33;87.57;101707.97;4167861;28;20025;-67
2021/06/15 07:54:28;;;;;;;12.68;9.68;;;20.20;99.90;;;19.46;86.36;101710.00;4169635;28;20021;-66
2021/06/15 07:56:28;;;;;;;11.85;9.15;;;20.30;99.90;;;19.61;85.68;101716.97;4169521;28;20243;-66
2021/06/15 07:58:29;;;;;;;12.00;9.35;;;20.30;99.90;;;19.71;84.70;101719.31;4169548;28;20032;-66
2021/06/15 08:00:30;;;;;;;13.93;9.98;;;20.40;99.90;;;19.57;85.44;101715.66;4169257;28;20566;-66
2021/06/15 08:02:31;;;;;;;12.48;9.48;;;20.50;99.90;;;19.51;86.01;101721.78;4169001;28;20033;-66
2021/06/15 08:04:33;;;;;;;12.55;8.68;;;20.50;99.90;;;19.42;86.44;101724.75;4168040;28;20033;-66
2021/06/15 08:06:35;;;;;;;11.43;8.88;;;20.50;99.90;;;19.33;86.94;101726.69;4168226;28;20026;-66
2021/06/15 08:08:35;;;;;;;10.98;9.02;;;20.40;99.90;;;19.32;87.67;101733.91;4167875;28;20029;-66
2021/06/15 08:10:36;;;;;;;12.30;10.07;;;20.50;99.90;;;19.45;86.31;101719.03;4169253;28;20072;-66
2021/06/15 08:12:37;;;;;;;9.68;8.57;;;20.60;99.90;;;19.98;85.78;101731.09;4169151;28;20061;-66
2021/06/15 08:14:38;;;;;;;11.23;7.35;;;20.70;99.90;;;20.27;84.93;101741.66;4168013;28;20436;-66
2021/06/15 08:16:39;;;;;;;10.38;8.40;;;20.90;99.90;;;20.32;83.27;101739.19;4169091;28;20093;-66
2021/06/15 08:18:40;;;;;;;13.18;9.35;;;21.10;99.90;;;20.15;83.20;101732.47;4167829;28;20029;-66
2021/06/15 08:20:46;;;;;;;12.00;9.02;;;21.20;99.90;;;20.28;83.38;101744.13;4154746;28;20475;-67
2021/06/15 08:22:46;;;;;;;9.52;8.25;;;21.30;99.90;;;20.50;82.68;101742.22;4154544;28;20159;-67
2021/06/15 08:24:47;;;;;;;10.35;7.82;;;21.40;99.90;;;20.66;80.84;101733.88;4167771;28;20092;-67
2021/06/15 08:26:48;;;;;;;12.15;8.85;;;21.50;99.90;;;20.76;80.24;101737.00;4168551;28;21662;-66
2021/06/15 08:28:49;;;;;;;11.10;8.98;;;21.70;99.90;;;20.62;81.04;101735.28;4168260;28;20037;-67
2021/06/15 08:30:51;;;;;;;11.95;9.27;;;21.70;99.90;;;20.70;81.79;101737.78;4183738;28;20032;-66
2021/06/15 08:32:52;;;;;;;12.07;8.77;;;21.70;99.90;;;20.77;80.97;101744.03;4179015;28;20502;-66
2021/06/15 08:34:53;;;;;;;14.45;10.20;;;21.80;99.90;;;20.80;80.29;101743.63;4171515;28;20025;-66